Dunbar, PA (15431)

4:59 PM EST on February 01, 2015 (GMT -0500)
Dunbar | Change Station
CLOSE
Current Station
Personal Weather Station
Location: Dunbar, PA
Elevation: 1056 ft
Nearby Weather Stations

Elev 1056 ft 40.00 °N, 79.69 °W | Updated 4 minutes ago

Overcast
Overcast
36.9 °F
Feels Like 37 °F
N
2.2
Wind Variable Wind from West
Gusts 2.2 mph

Today
High -- | Low -- °F
--% Chance of Precip.
Yesterday
High -- | Low -- °F
Precip. -- in
7:27 AM 5:37 PM
Waxing Gibbous, 96% visible
Pressure 29.91 in
Visibility 10.0 miles
Clouds Mostly Cloudy 4000 ft
Overcast 6000 ft
Windchill 37 °F
Dew Point 35 °F
Humidity 92%
Rainfall 0.11 in
Snow Depth Not available.
UV 0 out of 12
Pollen .10 out of 12
Air Quality Not available.
Flu Activity Not available.
METAR KLBE 012050Z 04006KT 10SM BKN040 OVC060 00/00 A2991 RMK PRESFR

More Conditions Fewer Conditions

Pressure 29.91 in
Visibility 10.0 miles
Clouds Mostly Cloudy 4000 ft
Overcast 6000 ft
Windchill 37 °F
Dew Point 35 °F
Humidity 92%
Rainfall 0.11 in
Snow Depth Not available.
UV 0 out of 12
Pollen .10 out of 12
Air Quality Not available.
Flu Activity Not available.
METAR KLBE 012050Z 04006KT 10SM BKN040 OVC060 00/00 A2991 RMK PRESFR

More Conditions Fewer Conditions

10-Day Weather Forecast

Almanac

Astronomy

Feb. 01, 2015 Rise Set
Actual Time
Civil Twilight
Nautical Twilight
Astronomical Twilight
Moon
Length of Visible Light
Length of Day
Tomorrow will be .
, % of the Moon is Illuminated

Today's Extremes

State Highs State Lows

Community

WunderPhotos

Upload Photos

1,792,555 photos uploaded!

WunderBlogs® & News

Nearby

Air Quality

  Air Quality AQ Index Pollutant
Not available.

Snow Depth

Station Depth Elevation

Earthquake Activity

City Distance Mag. Time & Date
Minimum magnitude displayed is 2.5.

Coastal Water Temperatures

Place Temperature

Nearby Weather Stations